Portada
Imágenes satélite Pronóstico 10 díasClimaPredicción Marítima Ciclones Rayo AeropuertosFAQ Noticias Acerca
El tiempo : Europa África América del Norte América del Sur Asia Australia-Oceanía Otros
Idiomas Contacto

Vitória, Espírito Santo, Brasil

latitud: 20-16S, longitud: 040-17W, altitud: 4 m


METAR: SBVT 271500Z 14007KT 9999 FEW030 32/21 Q1014
TAF: SBVT 271000Z 2712/2812 15008KT 9999 FEW025 TX29/2716Z TN21/2807Z BECMG 2800/2802 22006KT RMK PEA

Hora: 12:37 (15:37 UTC)

Observación

El informe se hizo hace 37 minutos, a las 15:00 UTC
Viento 7 kt del sureste
Temperatura 32°C
Humedad 52%
Presión 1014 hPa
Visibilidad 10 km o más
Escasas nubes a una altura de 3000 ft

Cambiar las unidades

Pronóstico

El informe se hizo hace 5 horas y 37 minutos, a las 10:00 UTC
Pronóstico válido del 27 a las 12 UTC al 28 a las 12 UTC
Viento 8 kt del sur-sureste
Visibilidad 10 km o más
Escasas nubes a una altura de 2500 ft
Evolucionando progresivamente
del 28 a las 00 UTC al 28 a las 02 UTC
Viento 6 kt del suroeste
La información que se ofrece en estas páginas está sujeta a una cláusula de exención de responsabilidad
El tiempo : Europa África América del Norte América del Sur Asia Australia-Oceanía Otros
Imágenes satélite Pronóstico 10 díasClimaPredicción Marítima Ciclones Rayo AeropuertosFAQ Idiomas Contacto Noticias Acerca